Terminal Aerodrome Forecast
Issued by NWS

Current Version | Previous Version | Graphics & Text | Print | Product List | Glossary On
Versions: 1 2 3 4 5 6 7 8 9 10 11 12 13 14 15 16 17 18 19 20 21 22 23 24 25 26 27 28 29 30 31 32
877
FTUS41 KILN 010244 AAA
TAFLUK
TAF AMD
KLUK 010244Z 0103/0124 15008KT 4SM -SHRA SCT015 BKN040
      TEMPO 0103/0106 2SM SHRA
     FM010700 18006KT 4SM BR OVC008
     FM011400 23005KT P6SM BKN018
     FM011700 24006KT P6SM BKN035
     FM012000 26005KT P6SM VCSH SCT025 BKN040=

USA.gov is the U.S. government's official web portal to all federal, state and local government web resources and services.